Johnsville, California
Current Conditions -  °F | °C
As of 9:52 PM on Friday 19 Dec 2014 (Local Time) from KBLU Reporting Station
Moderate Fog Moderate Fog  
Wind Chill: 32°   Ceiling: 200
Heat Index: 39°   Visibility: 0.25mi
Dew Point: 36°   Wind: 10mph
Humidity: 89%   Direction: 160°SSE
Pressure: 30.17"   Gusts: NA
Location:  39.7722°N, 120.711°W
Report Text: KBLU 200552Z AUTO 16009KT 1/4SM FG VV002 04/02 A3017 RMK AO2 RAB0456E35 SLP211 P0002 60013 T00390022 10039 20017 53006
Loading
Personal Weather Stations






























Interactive Weather Map New forecast layout! Learn more

10-Day Weather Forecast

Advertisements
Track Severe Weather on mobile